createdAt,value
2024-02-29T00:02:19.469Z,105.72
2024-02-29T00:04:47.049Z,96.60
2024-02-29T00:07:13.678Z,92.10
2024-02-29T00:09:40.617Z,95.53
2024-02-29T00:12:07.489Z,103.55
2024-02-29T00:14:33.929Z,100.13
2024-02-29T00:17:02.355Z,100.47
2024-02-29T00:19:29.239Z,107.95
2024-02-29T00:21:55.957Z,103.28
2024-02-29T00:24:22.623Z,107.15
2024-02-29T00:26:49.152Z,109.43
2024-02-29T00:29:15.566Z,106.90
2024-02-29T00:31:45.872Z,102.82
2024-02-29T00:34:13.192Z,104.30
2024-02-29T00:36:39.857Z,107.43
2024-02-29T00:39:14.289Z,102.82
2024-02-29T00:41:41.651Z,100.82
2024-02-29T00:44:08.084Z,105.85
2024-02-29T00:46:34.593Z,108.93
2024-02-29T00:49:01.143Z,101.35
2024-02-29T00:51:27.626Z,104.32
2024-02-29T00:53:54.646Z,102.40
2024-02-29T00:56:21.093Z,103.93
2024-02-29T00:58:47.521Z,109.50
2024-02-29T01:01:14.099Z,103.93
2024-02-29T01:03:40.721Z,103.43
2024-02-29T01:06:08.283Z,101.40
2024-02-29T01:08:34.968Z,107.63
2024-02-29T01:11:01.468Z,91.53
2024-02-29T01:13:28.625Z,102.97
2024-02-29T01:15:55.358Z,106.32
2024-02-29T01:18:22.095Z,99.50
2024-02-29T01:20:48.919Z,100.78
2024-02-29T01:23:15.398Z,107.20
2024-02-29T01:25:41.914Z,92.63
2024-02-29T01:28:08.741Z,97.65
2024-02-29T01:30:35.300Z,99.72
2024-02-29T01:33:01.783Z,109.53
2024-02-29T01:35:28.246Z,102.68
2024-02-29T01:37:54.697Z,107.70
2024-02-29T01:40:21.409Z,90.50
2024-02-29T01:42:47.871Z,98.38
2024-02-29T01:45:17.794Z,94.55
2024-02-29T01:47:44.244Z,94.75
2024-02-29T01:50:13.354Z,100.15
2024-02-29T01:52:43.849Z,100.20
2024-02-29T01:55:11.545Z,91.45
2024-02-29T01:57:39.410Z,97.57
2024-02-29T02:00:06.933Z,92.28
2024-02-29T02:02:33.401Z,93.43
2024-02-29T02:04:59.852Z,93.60
2024-02-29T02:07:27.414Z,94.75
2024-02-29T02:09:54.264Z,93.43
2024-02-29T02:12:20.708Z,85.70
2024-02-29T02:14:47.256Z,93.63
2024-02-29T02:17:14.189Z,87.70
2024-02-29T02:19:41.458Z,85.28
2024-02-29T02:22:07.972Z,84.90
2024-02-29T02:24:35.625Z,86.45
2024-02-29T02:27:02.238Z,84.45
2024-02-29T02:29:28.812Z,90.00
2024-02-29T02:31:56.311Z,88.20
2024-02-29T02:34:22.905Z,88.85
2024-02-29T02:36:49.353Z,85.45
2024-02-29T02:39:16.167Z,87.05
2024-02-29T02:41:46.100Z,85.13
2024-02-29T02:44:13.326Z,88.72
2024-02-29T02:46:40.006Z,86.65
2024-02-29T02:49:06.619Z,87.80
2024-02-29T02:51:33.280Z,91.38
2024-02-29T02:54:00.023Z,90.97
2024-02-29T02:56:26.501Z,85.72
2024-02-29T02:58:52.990Z,91.30
2024-02-29T03:01:19.476Z,85.18
2024-02-29T03:03:46.761Z,87.65
2024-02-29T03:06:15.171Z,84.35
2024-02-29T03:08:41.880Z,87.68
2024-02-29T03:11:08.631Z,85.70
2024-02-29T03:13:35.174Z,83.07
2024-02-29T03:16:01.748Z,83.75
2024-02-29T03:18:28.212Z,89.72
2024-02-29T03:20:54.700Z,85.43
2024-02-29T03:23:21.833Z,87.35
2024-02-29T03:25:48.313Z,90.13
2024-02-29T03:28:14.888Z,83.70
2024-02-29T03:30:41.953Z,87.43
2024-02-29T03:33:08.861Z,80.90
2024-02-29T03:35:35.332Z,82.57
2024-02-29T03:38:01.965Z,90.45
2024-02-29T03:40:29.130Z,90.38
2024-02-29T03:42:55.779Z,88.65
2024-02-29T03:45:22.380Z,89.05
2024-02-29T03:47:49.863Z,91.13
2024-02-29T03:50:16.408Z,85.80
2024-02-29T03:52:42.874Z,91.82
2024-02-29T03:55:10.403Z,83.10
2024-02-29T03:57:37.171Z,86.07
2024-02-29T04:00:04.487Z,86.30
2024-02-29T04:02:30.996Z,93.60
2024-02-29T04:04:57.693Z,93.28
2024-02-29T04:07:24.147Z,87.70
2024-02-29T04:09:55.654Z,86.13
2024-02-29T04:12:22.335Z,86.15
2024-02-29T04:14:48.841Z,99.00
2024-02-29T04:17:17.222Z,92.63
2024-02-29T04:19:44.714Z,87.60
2024-02-29T04:22:11.285Z,89.28
2024-02-29T04:24:37.840Z,89.68
2024-02-29T04:27:04.889Z,84.93
2024-02-29T04:29:31.703Z,79.75
2024-02-29T04:31:58.340Z,87.75
2024-02-29T04:34:25.433Z,87.35
2024-02-29T04:36:51.988Z,83.68
2024-02-29T04:39:19.528Z,82.43
2024-02-29T04:41:46.650Z,88.18
2024-02-29T04:44:13.201Z,78.53
2024-02-29T04:46:39.622Z,85.72
2024-02-29T04:49:06.302Z,85.75
2024-02-29T04:51:32.780Z,85.25
2024-02-29T04:54:00.176Z,83.68
2024-02-29T04:56:26.749Z,73.85
2024-02-29T04:58:53.204Z,82.50
2024-02-29T05:01:19.915Z,65.10
2024-02-29T05:03:46.499Z,83.18
2024-02-29T05:06:17.481Z,75.97
2024-02-29T05:08:45.032Z,76.53
2024-02-29T05:11:11.689Z,75.57
2024-02-29T05:13:38.616Z,72.22
2024-02-29T05:16:06.137Z,71.38
2024-02-29T05:18:33.259Z,73.28
2024-02-29T05:21:00.319Z,82.70
2024-02-29T05:23:26.896Z,68.18
2024-02-29T05:25:53.459Z,81.80
2024-02-29T05:28:19.925Z,76.53
2024-02-29T05:30:46.733Z,71.82
2024-02-29T05:33:13.232Z,68.95
2024-02-29T05:35:39.754Z,73.00
2024-02-29T05:38:08.442Z,72.93
2024-02-29T05:40:35.018Z,76.95
2024-02-29T05:43:04.511Z,71.97
2024-02-29T05:45:31.130Z,69.20
2024-02-29T05:47:57.616Z,70.57
2024-02-29T05:50:24.217Z,72.93
2024-02-29T05:52:50.726Z,70.85
2024-02-29T05:55:17.283Z,68.75
2024-02-29T05:57:43.969Z,74.32
2024-02-29T06:00:11.804Z,68.18
2024-02-29T06:02:38.466Z,69.53
2024-02-29T06:05:07.052Z,75.75
2024-02-29T06:07:34.591Z,69.30
2024-02-29T06:10:02.961Z,72.22
2024-02-29T06:12:31.444Z,68.68
2024-02-29T06:14:58.313Z,73.03
2024-02-29T06:17:24.809Z,67.18
2024-02-29T06:19:51.325Z,68.38
2024-02-29T06:22:19.582Z,69.40
2024-02-29T06:24:46.258Z,68.75
2024-02-29T06:27:12.807Z,74.25
2024-02-29T06:29:39.311Z,66.80
2024-02-29T06:32:06.333Z,69.45
2024-02-29T06:34:33.584Z,66.82
2024-02-29T06:37:00.231Z,65.30
2024-02-29T06:39:26.790Z,69.15
2024-02-29T06:41:53.482Z,61.90
2024-02-29T06:44:20.091Z,62.50
2024-02-29T06:46:46.681Z,66.65
2024-02-29T06:49:13.246Z,68.82
2024-02-29T06:51:39.870Z,58.58
2024-02-29T06:54:06.645Z,70.40
2024-02-29T06:56:33.282Z,66.90
2024-02-29T06:58:59.780Z,61.40
2024-02-29T07:01:26.331Z,62.85
2024-02-29T07:03:53.091Z,62.03
2024-02-29T07:06:19.567Z,61.92
2024-02-29T07:08:47.296Z,66.30
2024-02-29T07:11:15.131Z,58.60
2024-02-29T07:13:41.736Z,59.60
2024-02-29T07:16:10.673Z,62.83
2024-02-29T07:18:37.790Z,56.83
2024-02-29T07:21:05.578Z,61.67
2024-02-29T07:23:32.845Z,58.63
2024-02-29T07:26:02.739Z,61.50
2024-02-29T07:28:29.199Z,59.53
2024-02-29T07:30:55.806Z,59.58
2024-02-29T07:33:22.265Z,54.35
2024-02-29T07:35:49.271Z,56.95
2024-02-29T07:38:16.096Z,52.70
2024-02-29T07:40:43.052Z,53.78
2024-02-29T07:43:11.159Z,57.60
2024-02-29T07:45:37.812Z,56.83
2024-02-29T07:48:04.807Z,58.90
2024-02-29T07:50:32.601Z,57.40
2024-02-29T07:52:59.085Z,55.67
2024-02-29T07:55:25.654Z,47.53
2024-02-29T07:57:52.245Z,55.10
2024-02-29T08:00:19.086Z,55.00
2024-02-29T08:02:47.522Z,45.53
2024-02-29T08:05:14.650Z,51.53
2024-02-29T08:07:41.265Z,52.22
2024-02-29T08:10:08.213Z,53.40
2024-02-29T08:12:34.838Z,41.45
2024-02-29T08:15:01.534Z,49.10
2024-02-29T08:17:29.795Z,53.00
2024-02-29T08:19:56.432Z,48.53
2024-02-29T08:22:23.621Z,48.03
2024-02-29T08:24:50.161Z,45.47
2024-02-29T08:27:16.643Z,47.78
2024-02-29T08:29:43.095Z,51.60
2024-02-29T08:32:11.589Z,45.72
2024-02-29T08:34:39.540Z,50.65
2024-02-29T08:37:06.469Z,46.95
2024-02-29T08:39:35.076Z,48.33
2024-02-29T08:42:01.857Z,44.90
2024-02-29T08:44:28.426Z,44.70
2024-02-29T08:46:54.988Z,46.25
2024-02-29T08:49:22.906Z,45.83
2024-02-29T08:51:49.616Z,44.67
2024-02-29T08:54:16.435Z,44.80
2024-02-29T08:56:42.905Z,45.63
2024-02-29T08:59:10.544Z,44.22
2024-02-29T09:01:37.066Z,48.00
2024-02-29T09:04:03.614Z,51.05
2024-02-29T09:06:36.205Z,43.05
2024-02-29T09:09:07.753Z,42.00
2024-02-29T09:11:34.267Z,39.95
2024-02-29T09:14:00.831Z,37.85
2024-02-29T09:16:27.338Z,37.00
2024-02-29T09:18:53.884Z,36.75
2024-02-29T09:21:20.326Z,39.83
2024-02-29T09:23:46.805Z,40.38
2024-02-29T09:26:17.177Z,36.28
2024-02-29T09:28:44.221Z,41.40
2024-02-29T09:31:14.600Z,38.30
2024-02-29T09:33:41.630Z,41.65
2024-02-29T09:36:09.857Z,37.70
2024-02-29T09:38:36.813Z,35.15
2024-02-29T09:41:13.160Z,35.50
2024-02-29T09:43:52.980Z,35.95
2024-02-29T09:46:20.356Z,35.90
2024-02-29T09:48:47.591Z,34.35
2024-02-29T09:51:17.925Z,32.53
2024-02-29T09:53:44.385Z,29.33
2024-02-29T09:56:13.211Z,31.85
2024-02-29T09:58:40.248Z,30.55
2024-02-29T10:01:07.371Z,31.27
2024-02-29T10:03:34.331Z,28.05
2024-02-29T10:06:01.602Z,30.02
2024-02-29T10:08:29.314Z,30.98
2024-02-29T10:10:56.170Z,32.85
2024-02-29T10:13:22.682Z,28.65
2024-02-29T10:15:52.565Z,25.42
2024-02-29T10:18:19.643Z,25.08
2024-02-29T10:20:46.166Z,23.80
2024-02-29T10:23:13.999Z,22.58
2024-02-29T10:25:42.111Z,23.70
2024-02-29T10:28:15.543Z,23.02
2024-02-29T10:30:42.311Z,26.83
2024-02-29T10:33:14.308Z,24.33
2024-02-29T10:35:41.044Z,25.85
2024-02-29T10:38:09.641Z,24.95
2024-02-29T10:40:36.469Z,26.52
2024-02-29T10:43:03.968Z,26.50
2024-02-29T10:45:37.405Z,25.35
2024-02-29T10:48:17.666Z,24.58
2024-02-29T10:51:00.892Z,23.00
2024-02-29T10:53:49.707Z,22.90
2024-02-29T10:56:24.339Z,22.25
2024-02-29T10:59:17.758Z,22.65
2024-02-29T11:01:46.157Z,22.48
2024-02-29T11:04:12.776Z,23.38
2024-02-29T11:06:47.215Z,22.33
2024-02-29T11:09:16.180Z,22.30
2024-02-29T11:11:44.964Z,21.67
2024-02-29T11:14:14.149Z,21.60
2024-02-29T11:16:47.135Z,21.37
2024-02-29T11:19:20.052Z,21.77
2024-02-29T11:21:47.067Z,20.65
2024-02-29T11:24:21.224Z,20.20
2024-02-29T11:26:55.817Z,44.90
2024-02-29T11:29:23.798Z,20.15
2024-02-29T11:31:57.842Z,20.75
2024-02-29T11:34:24.930Z,20.42
2024-02-29T11:36:52.820Z,20.58
2024-02-29T11:39:23.181Z,20.13
2024-02-29T11:42:04.087Z,20.58
2024-02-29T11:44:36.866Z,19.75
2024-02-29T11:47:03.677Z,19.30
2024-02-29T11:49:30.317Z,19.80
2024-02-29T11:51:57.188Z,19.88
2024-02-29T11:54:26.755Z,19.85
2024-02-29T11:56:55.595Z,20.20
2024-02-29T11:59:22.722Z,19.98
2024-02-29T12:01:49.445Z,20.13
2024-02-29T12:04:16.613Z,19.70
2024-02-29T12:06:45.592Z,18.33
2024-02-29T12:09:16.031Z,18.88
2024-02-29T12:11:44.363Z,19.55
2024-02-29T12:14:11.374Z,18.27
2024-02-29T12:16:40.417Z,18.50
2024-02-29T12:19:07.515Z,19.35
2024-02-29T12:21:36.221Z,18.52
2024-02-29T12:24:03.805Z,18.50
2024-02-29T12:26:30.586Z,19.25
2024-02-29T12:28:57.101Z,18.88
2024-02-29T12:31:23.865Z,18.73
2024-02-29T12:33:50.537Z,18.27
2024-02-29T12:36:17.562Z,18.42
2024-02-29T12:38:45.217Z,21.60
2024-02-29T12:41:13.090Z,18.67
2024-02-29T12:43:46.684Z,19.98
2024-02-29T12:46:15.841Z,17.42
2024-02-29T12:48:43.494Z,17.50
2024-02-29T12:51:10.730Z,17.15
2024-02-29T12:53:37.754Z,18.90
2024-02-29T12:56:05.655Z,18.05
2024-02-29T12:58:32.956Z,18.13
2024-02-29T13:01:07.906Z,17.80
2024-02-29T13:03:34.575Z,18.48
2024-02-29T13:06:01.269Z,18.27
2024-02-29T13:08:27.904Z,16.67
2024-02-29T13:10:54.422Z,17.13
2024-02-29T13:13:20.892Z,15.65
2024-02-29T13:15:47.492Z,16.00
2024-02-29T13:18:14.047Z,15.63
2024-02-29T13:20:41.261Z,15.57
2024-02-29T13:23:08.733Z,15.98
2024-02-29T13:25:36.563Z,17.70
2024-02-29T13:28:05.157Z,17.20
2024-02-29T13:30:31.870Z,15.85
2024-02-29T13:32:58.488Z,14.50
2024-02-29T13:35:24.977Z,15.68
2024-02-29T13:37:51.824Z,15.43
2024-02-29T13:40:18.577Z,16.92
2024-02-29T13:42:47.606Z,15.13
2024-02-29T13:45:14.091Z,15.48
2024-02-29T13:47:49.352Z,15.88
2024-02-29T13:50:16.480Z,15.75
2024-02-29T13:52:44.135Z,15.40
2024-02-29T13:55:11.389Z,15.52
2024-02-29T13:57:38.069Z,15.77
2024-02-29T14:00:09.627Z,14.88
2024-02-29T14:02:37.720Z,14.98
2024-02-29T14:05:04.327Z,15.95
2024-02-29T14:07:31.038Z,16.02
2024-02-29T14:09:57.782Z,17.58
2024-02-29T14:12:25.945Z,17.27
2024-02-29T14:14:52.884Z,16.80
2024-02-29T14:17:19.613Z,16.88
2024-02-29T14:19:46.204Z,16.05
2024-02-29T14:22:13.421Z,16.23
2024-02-29T14:24:40.307Z,16.95
2024-02-29T14:27:06.952Z,18.35
2024-02-29T14:29:33.408Z,19.15
2024-02-29T14:31:59.876Z,19.55
2024-02-29T14:34:26.572Z,18.83
2024-02-29T14:36:53.128Z,22.85
2024-02-29T14:39:21.045Z,18.98
2024-02-29T14:41:48.330Z,18.17
2024-02-29T14:44:15.118Z,21.65
2024-02-29T14:46:41.753Z,17.00
2024-02-29T14:49:08.426Z,18.00
2024-02-29T14:51:34.878Z,17.35
2024-02-29T14:54:01.454Z,17.58
2024-02-29T14:56:28.094Z,17.38
2024-02-29T14:58:58.048Z,17.83
2024-02-29T15:03:54.612Z,19.05
2024-02-29T15:06:21.246Z,21.93
2024-02-29T15:08:48.195Z,20.92
2024-02-29T15:11:14.827Z,22.73
2024-02-29T15:13:41.610Z,20.58
2024-02-29T15:16:08.447Z,25.52
2024-02-29T15:18:35.718Z,29.67
2024-02-29T15:21:02.365Z,22.42
2024-02-29T15:23:28.901Z,21.63
2024-02-29T15:25:56.483Z,28.30
2024-02-29T15:28:25.336Z,25.55
2024-02-29T15:30:52.081Z,22.30
2024-02-29T15:33:20.650Z,22.27
2024-02-29T15:35:47.984Z,24.95
2024-02-29T15:38:17.429Z,23.10
2024-02-29T15:40:47.538Z,24.90
2024-02-29T15:43:14.592Z,26.25
2024-02-29T15:45:41.226Z,23.15
2024-02-29T15:48:08.044Z,22.17
2024-02-29T15:50:34.547Z,26.33
2024-02-29T15:53:01.001Z,22.75
2024-02-29T15:55:27.699Z,27.48
2024-02-29T15:57:54.387Z,24.70
2024-02-29T16:00:25.466Z,21.80
2024-02-29T16:02:52.198Z,22.30
2024-02-29T16:05:21.850Z,26.02
2024-02-29T16:07:48.400Z,23.17
2024-02-29T16:10:15.061Z,21.10
2024-02-29T16:12:42.018Z,25.40
2024-02-29T16:15:09.121Z,23.45
2024-02-29T16:17:36.373Z,21.90
2024-02-29T16:20:03.967Z,22.45
2024-02-29T16:22:30.585Z,23.60
2024-02-29T16:24:57.075Z,22.27
2024-02-29T16:27:23.648Z,22.65
2024-02-29T16:29:50.118Z,24.25
2024-02-29T16:32:16.539Z,22.15
2024-02-29T16:34:43.063Z,22.02
2024-02-29T16:37:09.564Z,21.23
2024-02-29T16:39:36.392Z,21.65
2024-02-29T16:42:03.028Z,23.40
2024-02-29T16:44:30.699Z,21.85
2024-02-29T16:46:57.417Z,22.50
2024-02-29T16:49:23.968Z,31.17
2024-02-29T16:51:50.803Z,22.48
2024-02-29T16:54:17.378Z,21.27
2024-02-29T16:56:46.071Z,20.55
2024-02-29T16:59:13.100Z,20.45
2024-02-29T17:01:40.814Z,19.50
2024-02-29T17:04:08.279Z,17.13
2024-02-29T17:06:36.462Z,19.65
2024-02-29T17:09:06.444Z,20.02
2024-02-29T17:11:34.541Z,17.92
2024-02-29T17:14:01.141Z,21.75
2024-02-29T17:16:27.841Z,25.05
2024-02-29T17:18:54.358Z,22.02
2024-02-29T17:21:25.937Z,24.73
2024-02-29T17:23:55.799Z,26.52
2024-02-29T17:26:22.296Z,22.33
2024-02-29T17:28:52.178Z,23.10
2024-02-29T17:31:20.593Z,24.27
2024-02-29T17:33:47.990Z,22.83
2024-02-29T17:36:15.133Z,26.35
2024-02-29T17:38:44.677Z,24.80
2024-02-29T17:41:14.347Z,23.83
2024-02-29T17:43:41.364Z,23.83
2024-02-29T17:46:08.201Z,23.30
2024-02-29T17:48:35.995Z,24.30
2024-02-29T17:51:02.561Z,23.10
2024-02-29T17:53:29.098Z,24.13
2024-02-29T17:55:55.537Z,27.20
2024-02-29T17:58:23.130Z,26.08
2024-02-29T18:00:49.767Z,28.08
2024-02-29T18:03:16.262Z,25.67
2024-02-29T18:05:43.909Z,26.17
2024-02-29T18:08:10.491Z,24.60
2024-02-29T18:10:37.044Z,26.88
2024-02-29T18:13:03.878Z,25.48
2024-02-29T18:15:30.421Z,29.55
2024-02-29T18:17:56.985Z,23.60
2024-02-29T18:20:23.686Z,29.05
2024-02-29T18:22:50.267Z,25.15
2024-02-29T18:25:20.203Z,26.65
2024-02-29T18:27:47.110Z,26.52
2024-02-29T18:30:14.139Z,28.98
2024-02-29T18:32:40.728Z,25.58
2024-02-29T18:35:10.558Z,24.40
2024-02-29T18:37:38.287Z,25.98
2024-02-29T18:40:05.271Z,25.20
2024-02-29T18:42:31.846Z,30.45
2024-02-29T18:44:59.718Z,23.73
2024-02-29T18:47:26.381Z,28.42
2024-02-29T18:49:52.825Z,27.65
2024-02-29T18:52:20.302Z,25.85
2024-02-29T18:54:46.898Z,24.60
2024-02-29T18:57:13.384Z,24.10
2024-02-29T18:59:39.836Z,27.63
2024-02-29T19:02:08.521Z,29.77
2024-02-29T19:04:35.324Z,26.73
2024-02-29T19:07:01.946Z,34.03
2024-02-29T19:09:28.948Z,35.35
2024-02-29T19:11:55.366Z,31.00
2024-02-29T19:14:21.965Z,32.25
2024-02-29T19:16:48.528Z,32.10
2024-02-29T19:19:15.085Z,33.38
2024-02-29T19:21:41.667Z,35.65
2024-02-29T19:24:11.211Z,35.55
2024-02-29T19:26:38.631Z,35.15
2024-02-29T19:29:06.129Z,37.63
2024-02-29T19:31:33.968Z,42.65
2024-02-29T19:34:00.622Z,36.67
2024-02-29T19:36:28.090Z,40.80
2024-02-29T19:38:54.932Z,39.35
2024-02-29T19:41:21.502Z,38.08
2024-02-29T19:43:48.080Z,40.40
2024-02-29T19:46:14.768Z,40.78
2024-02-29T19:48:41.552Z,38.20
2024-02-29T19:51:08.465Z,37.95
2024-02-29T19:53:37.065Z,40.85
2024-02-29T19:56:03.758Z,39.95
2024-02-29T19:58:30.384Z,40.88
2024-02-29T20:01:01.814Z,41.53
2024-02-29T20:03:29.457Z,42.92
2024-02-29T20:05:56.843Z,44.85
2024-02-29T20:08:23.387Z,42.58
2024-02-29T20:10:49.914Z,44.40
2024-02-29T20:13:16.481Z,43.78
2024-02-29T20:15:43.418Z,43.10
2024-02-29T20:18:10.249Z,43.83
2024-02-29T20:20:36.794Z,45.00
2024-02-29T20:23:03.395Z,45.38
2024-02-29T20:25:30.560Z,45.53
2024-02-29T20:27:57.781Z,46.88
2024-02-29T20:30:24.500Z,43.45
2024-02-29T20:32:51.097Z,46.83
2024-02-29T20:35:18.023Z,45.55
2024-02-29T20:37:44.581Z,43.58
2024-02-29T20:40:11.797Z,45.42
2024-02-29T20:42:39.049Z,45.10
2024-02-29T20:45:05.953Z,50.13
2024-02-29T20:47:33.181Z,45.88
2024-02-29T20:49:59.829Z,51.70
2024-02-29T20:52:26.877Z,48.78
2024-02-29T20:54:53.810Z,50.67
2024-02-29T20:57:20.543Z,49.05
2024-02-29T20:59:47.486Z,48.45
2024-02-29T21:02:14.797Z,47.83
2024-02-29T21:04:41.500Z,45.13
2024-02-29T21:07:08.095Z,47.50
2024-02-29T21:09:35.731Z,49.50
2024-02-29T21:12:02.649Z,51.38
2024-02-29T21:14:29.171Z,48.58
2024-02-29T21:16:55.700Z,49.08
2024-02-29T21:19:22.254Z,50.75
2024-02-29T21:21:48.811Z,51.72
2024-02-29T21:24:15.651Z,49.15
2024-02-29T21:26:42.949Z,52.35
2024-02-29T21:29:09.793Z,55.03
2024-02-29T21:31:36.396Z,48.40
2024-02-29T21:34:03.178Z,50.35
2024-02-29T21:36:29.711Z,53.75
2024-02-29T21:38:56.223Z,51.72
2024-02-29T21:41:25.717Z,50.50
2024-02-29T21:43:52.827Z,53.72
2024-02-29T21:46:19.393Z,49.90
2024-02-29T21:48:47.040Z,49.45
2024-02-29T21:51:20.319Z,56.60
2024-02-29T21:53:48.253Z,57.97
2024-02-29T21:56:15.095Z,53.22
2024-02-29T21:58:44.440Z,51.05
2024-02-29T22:01:11.987Z,55.90
2024-02-29T22:03:38.848Z,53.53
2024-02-29T22:06:05.644Z,55.45
2024-02-29T22:08:32.084Z,51.40
2024-02-29T22:10:58.617Z,55.55
2024-02-29T22:13:25.143Z,56.47
2024-02-29T22:15:51.694Z,52.55
2024-02-29T22:18:18.303Z,57.47
2024-02-29T22:20:46.931Z,51.35
2024-02-29T22:23:14.798Z,62.78
2024-02-29T22:25:41.713Z,56.10
2024-02-29T22:28:08.373Z,52.92
2024-02-29T22:30:37.861Z,56.55
2024-02-29T22:33:04.805Z,57.30
2024-02-29T22:35:31.321Z,54.80
2024-02-29T22:37:57.820Z,59.22
2024-02-29T22:40:24.507Z,53.47
2024-02-29T22:42:51.061Z,56.17
2024-02-29T22:45:17.690Z,53.58
2024-02-29T22:47:44.523Z,56.20
2024-02-29T22:50:11.659Z,55.13
2024-02-29T22:52:38.610Z,60.15
2024-02-29T22:55:06.702Z,57.72
2024-02-29T22:57:34.329Z,55.13
2024-02-29T23:00:01.343Z,56.78
2024-02-29T23:02:28.896Z,54.10
2024-02-29T23:04:55.421Z,51.55
2024-02-29T23:07:21.924Z,59.08
2024-02-29T23:09:48.570Z,57.38
2024-02-29T23:12:15.029Z,58.95
2024-02-29T23:14:41.780Z,56.75
2024-02-29T23:17:08.228Z,61.72
2024-02-29T23:19:34.799Z,58.28
2024-02-29T23:22:01.286Z,59.95
2024-02-29T23:24:27.776Z,54.28
2024-02-29T23:26:54.314Z,57.05
2024-02-29T23:29:20.989Z,60.28
2024-02-29T23:31:47.466Z,60.58
2024-02-29T23:34:14.181Z,66.07
2024-02-29T23:36:42.078Z,59.13
2024-02-29T23:39:08.721Z,57.20
2024-02-29T23:41:35.384Z,65.32
2024-02-29T23:44:01.929Z,63.00
2024-02-29T23:46:28.799Z,62.28
2024-02-29T23:48:55.305Z,57.42
2024-02-29T23:51:21.830Z,59.63
2024-02-29T23:53:48.423Z,58.33
2024-02-29T23:56:15.339Z,60.47
2024-02-29T23:58:42.520Z,62.92
